createdAt,value
2017-07-14T00:00:09.556Z,0
2017-07-14T00:00:50.454Z,0
2017-07-14T00:01:31.335Z,0
2017-07-14T00:02:12.222Z,0
2017-07-14T00:02:53.122Z,0
2017-07-14T00:03:34.017Z,0
2017-07-14T00:04:14.879Z,0
2017-07-14T00:04:55.761Z,0
2017-07-14T00:05:36.652Z,0
2017-07-14T00:06:17.542Z,0
2017-07-14T00:06:58.414Z,0
2017-07-14T00:07:39.306Z,0
2017-07-14T00:08:20.190Z,0
2017-07-14T00:09:01.084Z,0
2017-07-14T00:09:41.965Z,0
2017-07-14T00:10:22.856Z,0
2017-07-14T00:11:03.758Z,0
2017-07-14T00:11:44.647Z,0
2017-07-14T00:12:25.549Z,0
2017-07-14T00:13:06.439Z,0
2017-07-14T00:13:47.329Z,0
2017-07-14T00:14:28.215Z,0
2017-07-14T00:15:09.125Z,0
2017-07-14T00:15:50.015Z,0
2017-07-14T00:16:30.923Z,0
2017-07-14T00:17:11.791Z,0
2017-07-14T00:17:52.693Z,0
2017-07-14T00:18:33.603Z,0
2017-07-14T00:19:14.490Z,0
2017-07-14T00:19:55.394Z,0
2017-07-14T00:20:36.298Z,0
2017-07-14T00:21:17.242Z,0
2017-07-14T00:21:58.097Z,0
2017-07-14T00:22:38.988Z,0
2017-07-14T00:23:19.898Z,0
2017-07-14T00:24:00.770Z,0
2017-07-14T00:24:41.651Z,0
2017-07-14T00:25:22.610Z,0
2017-07-14T00:26:03.470Z,0
2017-07-14T00:26:44.366Z,0
2017-07-14T00:27:25.245Z,0
2017-07-14T00:28:06.138Z,0
2017-07-14T00:28:47.012Z,0
2017-07-14T00:29:27.914Z,0
2017-07-14T00:30:08.791Z,0
2017-07-14T00:30:49.688Z,0
2017-07-14T00:31:30.571Z,0
2017-07-14T00:32:11.471Z,0
2017-07-14T00:32:52.334Z,0
2017-07-14T00:33:33.239Z,0
2017-07-14T00:34:14.140Z,0
2017-07-14T00:34:55.026Z,0
2017-07-14T00:35:35.899Z,0
2017-07-14T00:36:16.802Z,0
2017-07-14T00:36:57.695Z,0
2017-07-14T00:37:38.581Z,0
2017-07-14T00:38:19.465Z,0
2017-07-14T00:39:00.361Z,0
2017-07-14T00:39:41.251Z,0
2017-07-14T00:40:22.185Z,0
2017-07-14T00:41:03.060Z,0
2017-07-14T00:41:43.943Z,0
2017-07-14T00:42:24.845Z,0
2017-07-14T00:43:05.725Z,0
2017-07-14T00:43:46.611Z,0
2017-07-14T00:44:27.504Z,0
2017-07-14T00:45:08.389Z,0
2017-07-14T00:45:49.267Z,0
2017-07-14T00:46:30.163Z,0
2017-07-14T00:47:11.060Z,0
2017-07-14T00:47:51.947Z,0
2017-07-14T00:48:32.831Z,0
2017-07-14T00:49:13.743Z,0
2017-07-14T00:49:54.625Z,0
2017-07-14T00:50:35.531Z,0
2017-07-14T00:51:16.400Z,0
2017-07-14T00:51:57.292Z,0
2017-07-14T00:52:38.193Z,0
2017-07-14T00:53:19.088Z,0
2017-07-14T00:53:59.960Z,0
2017-07-14T00:54:40.866Z,0
2017-07-14T00:55:21.758Z,0
2017-07-14T00:56:02.644Z,0
2017-07-14T00:56:43.528Z,0
2017-07-14T00:57:24.432Z,0
2017-07-14T00:58:05.303Z,0
2017-07-14T00:58:46.231Z,0
2017-07-14T00:59:27.119Z,0
2017-07-14T01:00:08.005Z,0
2017-07-14T01:00:48.928Z,0
2017-07-14T01:01:29.812Z,0
2017-07-14T01:02:10.712Z,0
2017-07-14T01:02:51.608Z,0
2017-07-14T01:03:32.507Z,0
2017-07-14T01:04:13.428Z,0
2017-07-14T01:04:54.305Z,0
2017-07-14T01:05:35.201Z,0
2017-07-14T01:06:16.103Z,0
2017-07-14T01:06:56.984Z,0
2017-07-14T01:07:37.875Z,0
2017-07-14T01:08:18.781Z,0
2017-07-14T01:08:59.643Z,0
2017-07-14T01:09:40.553Z,0
2017-07-14T01:10:21.458Z,0
2017-07-14T01:11:02.342Z,0
2017-07-14T01:11:43.257Z,0
2017-07-14T01:12:24.138Z,0
2017-07-14T01:13:05.022Z,0
2017-07-14T01:13:45.925Z,0
2017-07-14T01:14:26.807Z,0
2017-07-14T01:15:07.752Z,0
2017-07-14T01:15:48.648Z,0
2017-07-14T01:16:29.526Z,0
2017-07-14T01:17:10.419Z,0
2017-07-14T01:17:51.306Z,0
2017-07-14T01:19:29.711Z,0
2017-07-14T01:20:10.597Z,0
2017-07-14T01:20:51.482Z,0
2017-07-14T01:21:32.369Z,0
2017-07-14T01:22:13.243Z,0
2017-07-14T01:22:54.131Z,0
2017-07-14T01:23:35.036Z,0
2017-07-14T01:24:15.925Z,0
2017-07-14T01:24:56.815Z,0
2017-07-14T01:25:37.727Z,0
2017-07-14T01:26:18.594Z,0
2017-07-14T01:26:59.476Z,0
2017-07-14T01:27:40.384Z,0
2017-07-14T01:28:21.269Z,0
2017-07-14T01:29:02.228Z,0
2017-07-14T01:29:43.117Z,0
2017-07-14T01:30:24.007Z,0
2017-07-14T01:31:04.900Z,0
2017-07-14T01:31:45.776Z,0
2017-07-14T01:32:26.647Z,0
2017-07-14T01:33:07.552Z,0
2017-07-14T01:33:48.431Z,0
2017-07-14T01:34:29.354Z,0
2017-07-14T01:35:10.244Z,0
2017-07-14T01:35:51.140Z,0
2017-07-14T01:36:32.023Z,0
2017-07-14T01:37:12.923Z,0
2017-07-14T01:37:53.787Z,0
2017-07-14T01:38:34.675Z,0
2017-07-14T01:39:15.578Z,0
2017-07-14T01:39:56.462Z,0
2017-07-14T01:40:37.349Z,0
2017-07-14T01:41:18.253Z,0
2017-07-14T01:41:59.133Z,0
2017-07-14T01:42:40.017Z,0
2017-07-14T01:43:20.920Z,0
2017-07-14T01:44:01.811Z,0
2017-07-14T01:44:42.700Z,0
2017-07-14T01:45:23.587Z,0
2017-07-14T01:46:04.479Z,0
2017-07-14T01:46:45.357Z,0
2017-07-14T01:47:26.261Z,0
2017-07-14T01:48:07.158Z,0
2017-07-14T01:48:48.029Z,0
2017-07-14T01:49:28.907Z,0
2017-07-14T01:50:09.791Z,0
2017-07-14T01:50:50.694Z,0
2017-07-14T01:51:31.577Z,0
2017-07-14T01:52:12.471Z,0
2017-07-14T01:52:53.350Z,0
2017-07-14T01:53:34.229Z,0
2017-07-14T01:54:15.116Z,0
2017-07-14T01:54:56.002Z,0
2017-07-14T01:55:36.906Z,0
2017-07-14T01:56:17.771Z,0
2017-07-14T01:56:58.645Z,0
2017-07-14T01:57:39.538Z,0
2017-07-14T01:58:20.441Z,0
2017-07-14T01:59:01.320Z,0
2017-07-14T01:59:42.210Z,0
2017-07-14T02:00:23.108Z,0
2017-07-14T02:01:03.989Z,0
2017-07-14T02:01:44.883Z,0
2017-07-14T02:02:25.780Z,0
2017-07-14T02:03:06.659Z,0
2017-07-14T02:03:47.540Z,0
2017-07-14T02:04:28.424Z,0
2017-07-14T02:05:09.318Z,0
2017-07-14T02:05:50.211Z,0
2017-07-14T02:06:31.092Z,0
2017-07-14T02:07:11.982Z,0
2017-07-14T02:07:52.872Z,0
2017-07-14T02:08:33.743Z,0
2017-07-14T02:09:14.643Z,0
2017-07-14T02:09:55.531Z,0
2017-07-14T02:10:36.415Z,0
2017-07-14T02:11:17.320Z,0
2017-07-14T02:11:58.206Z,0
2017-07-14T02:12:39.097Z,0
2017-07-14T02:13:19.994Z,0
2017-07-14T02:14:00.871Z,0
2017-07-14T02:14:41.760Z,0
2017-07-14T02:15:22.643Z,0
2017-07-14T02:16:03.559Z,0
2017-07-14T02:16:44.441Z,0
2017-07-14T02:17:25.330Z,0
2017-07-14T02:18:06.230Z,0
2017-07-14T02:18:47.119Z,0
2017-07-14T02:19:28.009Z,4
2017-07-14T02:20:08.901Z,4
2017-07-14T02:20:49.806Z,4
2017-07-14T02:21:30.656Z,4
2017-07-14T02:22:11.548Z,0
2017-07-14T02:22:52.439Z,4
2017-07-14T02:23:33.418Z,0
2017-07-14T02:24:14.276Z,0
2017-07-14T02:24:55.154Z,0
2017-07-14T02:25:36.056Z,0
2017-07-14T02:26:16.948Z,4
2017-07-14T02:26:57.851Z,4
2017-07-14T02:27:38.757Z,4
2017-07-14T02:28:19.645Z,4
2017-07-14T02:29:00.550Z,4
2017-07-14T02:29:41.428Z,4
2017-07-14T02:30:22.356Z,4
2017-07-14T02:31:03.233Z,8
2017-07-14T02:31:44.167Z,8
2017-07-14T02:32:25.062Z,4
2017-07-14T02:33:05.944Z,8
2017-07-14T02:33:46.879Z,8
2017-07-14T02:34:27.747Z,8
2017-07-14T02:35:08.641Z,8
2017-07-14T02:35:49.535Z,8
2017-07-14T02:36:30.422Z,12
2017-07-14T02:37:11.304Z,12
2017-07-14T02:37:52.212Z,12
2017-07-14T02:38:33.093Z,12
2017-07-14T02:39:13.975Z,16
2017-07-14T02:39:54.866Z,16
2017-07-14T02:40:35.751Z,16
2017-07-14T02:41:16.634Z,20
2017-07-14T02:41:57.516Z,24
2017-07-14T02:42:38.415Z,24
2017-07-14T02:43:19.302Z,28
2017-07-14T02:44:00.189Z,28
2017-07-14T02:44:41.080Z,28
2017-07-14T02:45:21.977Z,32
2017-07-14T02:46:02.855Z,36
2017-07-14T02:46:43.726Z,40
2017-07-14T02:47:24.612Z,36
2017-07-14T02:48:05.489Z,44
2017-07-14T02:48:46.369Z,40
2017-07-14T02:49:27.248Z,44
2017-07-14T02:50:08.133Z,48
2017-07-14T02:50:49.020Z,48
2017-07-14T02:51:29.902Z,48
2017-07-14T02:52:10.782Z,52
2017-07-14T02:52:51.678Z,52
2017-07-14T02:53:32.556Z,56
2017-07-14T02:54:13.446Z,56
2017-07-14T02:54:54.335Z,56
2017-07-14T02:55:35.225Z,60
2017-07-14T02:56:16.112Z,60
2017-07-14T02:56:56.995Z,60
2017-07-14T02:57:37.894Z,64
2017-07-14T02:58:18.794Z,68
2017-07-14T02:58:59.666Z,64
2017-07-14T02:59:40.563Z,72
2017-07-14T03:00:21.490Z,72
2017-07-14T03:01:02.382Z,76
2017-07-14T03:01:43.274Z,80
2017-07-14T03:02:24.194Z,84
2017-07-14T03:03:05.094Z,88
2017-07-14T03:03:45.979Z,92
2017-07-14T03:04:26.863Z,100
2017-07-14T03:05:07.759Z,104
2017-07-14T03:05:48.637Z,108
2017-07-14T03:06:29.526Z,112
2017-07-14T03:07:10.445Z,120
2017-07-14T03:07:51.329Z,128
2017-07-14T03:08:32.223Z,136
2017-07-14T03:09:13.121Z,144
2017-07-14T03:09:54.005Z,148
2017-07-14T03:10:34.889Z,164
2017-07-14T03:11:15.811Z,172
2017-07-14T03:11:56.675Z,184
2017-07-14T03:12:37.566Z,200
2017-07-14T03:13:18.460Z,216
2017-07-14T03:13:59.344Z,232
2017-07-14T03:14:40.225Z,248
2017-07-14T03:15:21.118Z,260
2017-07-14T03:16:02.013Z,272
2017-07-14T03:16:42.881Z,284
2017-07-14T03:17:23.775Z,296
2017-07-14T03:18:04.663Z,308
2017-07-14T03:18:45.568Z,316
2017-07-14T03:19:26.468Z,328
2017-07-14T03:20:07.371Z,336
2017-07-14T03:20:48.252Z,348
2017-07-14T03:21:29.144Z,360
2017-07-14T03:22:10.033Z,360
2017-07-14T03:22:50.917Z,364
2017-07-14T03:23:31.830Z,368
2017-07-14T03:24:12.696Z,368
2017-07-14T03:24:53.612Z,368
2017-07-14T03:25:34.490Z,368
2017-07-14T03:26:15.379Z,376
2017-07-14T03:26:56.284Z,388
2017-07-14T03:27:37.175Z,400
2017-07-14T03:28:18.063Z,412
2017-07-14T03:28:58.951Z,424
2017-07-14T03:29:39.844Z,440
2017-07-14T03:30:20.730Z,452
2017-07-14T03:31:01.614Z,464
2017-07-14T03:31:42.494Z,476
2017-07-14T03:32:23.388Z,488
2017-07-14T03:33:04.285Z,492
2017-07-14T03:33:45.143Z,492
2017-07-14T03:34:26.017Z,492
2017-07-14T03:35:06.905Z,500
2017-07-14T03:35:47.815Z,504
2017-07-14T03:36:28.714Z,520
2017-07-14T03:37:09.627Z,536
2017-07-14T03:37:50.521Z,556
2017-07-14T03:38:31.410Z,572
2017-07-14T03:39:12.301Z,596
2017-07-14T03:39:53.171Z,624
2017-07-14T03:40:34.051Z,672
2017-07-14T03:41:14.937Z,724
2017-07-14T03:41:55.838Z,764
2017-07-14T03:42:36.711Z,800
2017-07-14T03:43:17.603Z,836
2017-07-14T03:43:58.500Z,864
2017-07-14T03:44:39.398Z,892
2017-07-14T03:45:20.254Z,908
2017-07-14T03:46:01.153Z,920
2017-07-14T03:46:42.050Z,928
2017-07-14T03:47:22.913Z,924
2017-07-14T03:48:03.839Z,940
2017-07-14T03:48:44.736Z,944
2017-07-14T03:49:25.621Z,948
2017-07-14T03:50:06.525Z,948
2017-07-14T03:50:47.406Z,956
2017-07-14T03:51:28.278Z,956
2017-07-14T03:52:09.170Z,960
2017-07-14T03:52:50.065Z,972
2017-07-14T03:53:30.954Z,996
2017-07-14T03:54:11.860Z,1044
2017-07-14T03:54:52.746Z,1076
2017-07-14T03:55:33.626Z,1124
2017-07-14T03:56:14.523Z,1152
2017-07-14T03:56:55.401Z,1188
2017-07-14T03:57:36.290Z,1208
2017-07-14T03:58:17.178Z,1232
2017-07-14T03:58:58.099Z,1268
2017-07-14T03:59:38.977Z,1292
2017-07-14T04:00:19.869Z,1312
2017-07-14T04:01:00.762Z,1352
2017-07-14T04:01:41.653Z,1400
2017-07-14T04:02:22.547Z,1436
2017-07-14T04:03:03.450Z,1460
2017-07-14T04:03:44.311Z,1488
2017-07-14T04:04:25.189Z,1508
2017-07-14T04:05:06.083Z,1528
2017-07-14T04:05:46.977Z,1540
2017-07-14T04:06:27.863Z,1552
2017-07-14T04:07:08.766Z,1572
2017-07-14T04:07:49.674Z,1584
2017-07-14T04:08:30.530Z,1596
2017-07-14T04:09:11.426Z,1596
2017-07-14T04:09:52.345Z,1600
2017-07-14T04:10:33.223Z,1596
2017-07-14T04:11:14.102Z,1616
2017-07-14T04:11:55.011Z,1636
2017-07-14T04:12:35.899Z,1652
2017-07-14T04:13:16.784Z,1680
2017-07-14T04:13:57.672Z,1724
2017-07-14T04:14:38.553Z,1792
2017-07-14T04:15:19.447Z,1868
2017-07-14T04:16:00.335Z,1964
2017-07-14T04:16:41.232Z,2024
2017-07-14T04:17:22.113Z,2084
2017-07-14T04:18:03.025Z,2132
2017-07-14T04:18:43.924Z,2176
2017-07-14T04:19:24.797Z,2236
2017-07-14T04:20:05.727Z,2316
2017-07-14T04:20:46.619Z,2400
2017-07-14T04:21:27.532Z,2472
2017-07-14T04:22:08.415Z,2528
2017-07-14T04:22:49.301Z,2588
2017-07-14T04:23:30.209Z,2668
2017-07-14T04:24:11.087Z,2744
2017-07-14T04:24:51.986Z,2824
2017-07-14T04:25:32.872Z,2892
2017-07-14T04:26:13.757Z,2972
2017-07-14T04:26:54.653Z,3064
2017-07-14T04:27:35.549Z,3176
2017-07-14T04:28:16.444Z,3296
2017-07-14T04:28:57.347Z,3420
2017-07-14T04:29:38.234Z,3544
2017-07-14T04:30:19.110Z,3684
2017-07-14T04:30:59.995Z,3848
2017-07-14T04:31:40.898Z,4032
2017-07-14T04:32:21.785Z,4212
2017-07-14T04:33:02.677Z,4364
2017-07-14T04:33:43.578Z,4460
2017-07-14T04:34:24.467Z,4504
2017-07-14T04:35:05.357Z,4500
2017-07-14T04:35:46.255Z,4476
2017-07-14T04:36:27.144Z,4440
2017-07-14T04:37:08.032Z,4424
2017-07-14T04:37:48.924Z,4412
2017-07-14T04:38:29.837Z,4384
2017-07-14T04:39:10.688Z,4352
2017-07-14T04:39:51.581Z,4272
2017-07-14T04:40:32.476Z,4276
2017-07-14T04:41:13.365Z,4372
2017-07-14T04:41:54.399Z,4432
2017-07-14T04:42:35.200Z,4512
2017-07-14T04:43:16.131Z,4628
2017-07-14T04:43:57.157Z,4772
2017-07-14T04:44:38.092Z,4912
2017-07-14T04:46:52.398Z,5356
2017-07-14T04:49:01.573Z,6104
2017-07-14T04:51:00.482Z,6132
2017-07-14T04:51:41.439Z,6068
2017-07-14T04:52:22.453Z,6048
2017-07-14T04:53:03.414Z,5936
2017-07-14T04:53:44.413Z,5992
2017-07-14T04:55:43.384Z,5716
2017-07-14T04:57:21.749Z,5608
2017-07-14T04:58:02.633Z,5592
2017-07-14T04:58:43.547Z,5560
2017-07-14T04:59:24.416Z,5568
2017-07-14T05:00:05.304Z,5576
2017-07-14T05:00:46.199Z,5580
2017-07-14T05:02:56.210Z,5532
2017-07-14T05:03:37.108Z,5500
2017-07-14T05:04:17.986Z,5404
2017-07-14T05:04:58.870Z,5340
2017-07-14T05:05:39.751Z,5292
2017-07-14T05:06:20.648Z,5272
2017-07-14T05:07:01.517Z,5276
2017-07-14T05:07:42.396Z,5324
2017-07-14T05:08:23.279Z,5360
2017-07-14T05:09:04.179Z,5400
2017-07-14T05:09:45.055Z,5428
2017-07-14T05:10:25.956Z,5468
2017-07-14T05:11:06.857Z,5504
2017-07-14T05:11:47.738Z,5528
2017-07-14T05:12:28.631Z,5540
2017-07-14T05:13:09.550Z,5548
2017-07-14T05:13:50.434Z,5544
2017-07-14T05:14:31.308Z,5556
2017-07-14T05:15:12.186Z,5552
2017-07-14T05:15:53.081Z,5548
2017-07-14T05:16:33.971Z,5544
2017-07-14T05:17:14.856Z,5528
2017-07-14T05:17:55.769Z,5516
2017-07-14T05:18:36.660Z,5476
2017-07-14T05:19:17.609Z,5440
2017-07-14T05:19:58.491Z,5392
2017-07-14T05:20:39.390Z,5344
2017-07-14T05:21:20.277Z,5296
2017-07-14T05:22:01.154Z,5220
2017-07-14T05:24:00.904Z,4964
2017-07-14T05:24:41.788Z,4892
2017-07-14T05:26:53.453Z,4752
2017-07-14T05:27:34.355Z,4724
2017-07-14T05:28:15.262Z,4704
2017-07-14T05:28:56.163Z,4692
2017-07-14T05:29:37.040Z,4700
2017-07-14T05:30:17.941Z,4720
2017-07-14T05:32:11.586Z,4716
2017-07-14T05:32:52.472Z,4776
2017-07-14T05:33:33.359Z,4884
2017-07-14T05:34:14.252Z,4968
2017-07-14T05:34:55.143Z,5068
2017-07-14T05:35:36.028Z,5216
2017-07-14T05:36:16.920Z,5400
2017-07-14T05:36:57.832Z,5536
2017-07-14T05:37:38.723Z,5708
2017-07-14T05:38:19.649Z,5908
2017-07-14T05:39:00.523Z,6084
2017-07-14T05:39:41.400Z,6236
2017-07-14T05:40:22.306Z,6412
2017-07-14T05:41:03.247Z,6604
2017-07-14T05:41:44.143Z,6772
2017-07-14T05:42:25.033Z,6924
2017-07-14T05:43:05.923Z,7068
2017-07-14T05:43:46.844Z,7220
2017-07-14T05:44:27.706Z,7328
2017-07-14T05:45:08.614Z,7416
2017-07-14T05:45:49.497Z,7472
2017-07-14T05:46:30.381Z,7500
2017-07-14T05:47:11.262Z,7512
2017-07-14T05:47:52.156Z,7484
2017-07-14T05:48:33.072Z,7432
2017-07-14T05:49:13.963Z,7352
2017-07-14T05:49:54.828Z,7356
2017-07-14T05:50:35.720Z,7344
2017-07-14T05:51:16.598Z,7024
2017-07-14T05:51:57.503Z,6912
2017-07-14T05:52:38.385Z,6884
2017-07-14T05:53:19.271Z,6860
2017-07-14T05:54:00.586Z,6852
2017-07-14T05:54:41.571Z,6868
2017-07-14T05:55:22.469Z,6888
2017-07-14T05:56:03.745Z,6876
2017-07-14T05:56:44.628Z,6892
2017-07-14T05:57:25.515Z,6868
2017-07-14T05:58:06.404Z,6880
2017-07-14T05:58:47.291Z,6892
2017-07-14T05:59:28.192Z,6908
2017-07-14T06:00:09.089Z,6904
2017-07-14T06:00:49.985Z,6884
2017-07-14T06:01:30.878Z,6904
2017-07-14T06:02:11.763Z,6996
2017-07-14T06:02:52.662Z,7104
2017-07-14T06:03:33.555Z,7272
2017-07-14T06:04:14.439Z,7468
2017-07-14T06:04:55.334Z,7664
2017-07-14T06:05:36.231Z,7840
2017-07-14T06:06:17.115Z,8040
2017-07-14T06:06:58.011Z,8224
2017-07-14T06:07:38.974Z,8296
2017-07-14T06:08:19.868Z,8388
2017-07-14T06:09:00.752Z,8548
2017-07-14T06:09:41.653Z,8680
2017-07-14T06:10:22.553Z,8688
2017-07-14T06:11:03.426Z,8752
2017-07-14T06:11:44.337Z,8888
2017-07-14T06:12:25.212Z,9060
2017-07-14T06:13:06.122Z,9376
2017-07-14T06:13:47.036Z,9304
2017-07-14T06:14:27.939Z,9844
2017-07-14T06:15:08.837Z,10340
2017-07-14T06:15:49.723Z,9104
2017-07-14T06:16:30.612Z,8564
2017-07-14T06:17:11.506Z,8636
2017-07-14T06:17:52.401Z,8632
2017-07-14T06:18:33.308Z,8380
2017-07-14T06:19:14.215Z,8616
2017-07-14T06:19:55.086Z,8420
2017-07-14T06:20:36.072Z,8400
2017-07-14T06:21:16.981Z,8532
2017-07-14T06:21:57.858Z,8628
2017-07-14T06:22:38.763Z,8304
2017-07-14T06:23:19.688Z,8412
2017-07-14T06:24:00.587Z,8412
2017-07-14T06:24:41.473Z,8908
2017-07-14T06:25:22.381Z,8864
2017-07-14T06:26:03.303Z,8684
2017-07-14T06:26:44.177Z,8832
2017-07-14T06:27:25.073Z,8872
2017-07-14T06:28:05.969Z,9012
2017-07-14T06:28:46.885Z,9080
2017-07-14T06:29:27.747Z,9304
2017-07-14T06:30:08.629Z,9300
2017-07-14T06:30:49.518Z,9564
2017-07-14T06:31:30.408Z,9200
2017-07-14T06:32:11.300Z,9460
2017-07-14T06:32:52.181Z,9400
2017-07-14T06:33:33.073Z,9380
2017-07-14T06:34:13.957Z,9100
2017-07-14T06:34:54.855Z,9444
2017-07-14T06:35:35.743Z,9920
2017-07-14T06:36:16.643Z,9504
2017-07-14T06:36:57.531Z,9188
2017-07-14T06:37:38.434Z,9156
2017-07-14T06:38:19.374Z,9348
2017-07-14T06:39:00.258Z,9676
2017-07-14T06:39:41.159Z,10252
2017-07-14T06:40:22.050Z,10492
2017-07-14T06:41:02.934Z,10196
2017-07-14T06:41:43.840Z,10116
2017-07-14T06:42:24.726Z,9924
2017-07-14T06:43:05.623Z,9796
2017-07-14T06:43:46.516Z,10300
2017-07-14T06:44:27.408Z,11272
2017-07-14T06:46:21.089Z,13404
2017-07-14T06:47:01.966Z,13684
2017-07-14T06:47:42.863Z,14260
2017-07-14T06:48:23.829Z,15616
2017-07-14T06:49:04.711Z,14832
2017-07-14T06:49:45.603Z,13072
2017-07-14T06:50:26.502Z,14000
2017-07-14T06:51:07.423Z,13936
2017-07-14T06:51:48.314Z,13640
2017-07-14T06:52:29.200Z,13568
2017-07-14T06:53:10.095Z,10828
2017-07-14T06:53:50.999Z,11612
2017-07-14T06:54:31.925Z,10248
2017-07-14T06:55:12.833Z,9788
2017-07-14T06:55:53.718Z,9192
2017-07-14T06:56:34.622Z,8840
2017-07-14T06:57:15.519Z,9320
2017-07-14T06:57:56.418Z,9428
2017-07-14T06:58:37.303Z,10828
2017-07-14T06:59:18.200Z,12256
2017-07-14T06:59:59.083Z,13320
2017-07-14T07:00:40.006Z,13484
2017-07-14T07:01:20.898Z,14392
2017-07-14T07:02:01.790Z,14408
2017-07-14T07:02:42.687Z,12844
2017-07-14T07:03:23.571Z,13400
2017-07-14T07:04:04.464Z,14008
2017-07-14T07:04:45.361Z,12988
2017-07-14T07:05:26.253Z,12116
2017-07-14T07:06:07.149Z,13624
2017-07-14T07:06:48.056Z,14208
2017-07-14T07:07:28.948Z,13616
2017-07-14T07:08:09.836Z,14152
2017-07-14T07:08:50.739Z,13940
2017-07-14T07:09:31.639Z,14328
2017-07-14T07:10:12.536Z,14348
2017-07-14T07:10:53.427Z,14436
2017-07-14T07:11:34.318Z,14384
2017-07-14T07:12:15.222Z,14400
2017-07-14T07:12:56.104Z,14440
2017-07-14T07:13:36.997Z,14444
2017-07-14T07:14:17.896Z,14368
2017-07-14T07:14:58.792Z,14300
2017-07-14T07:15:39.679Z,14384
2017-07-14T07:16:20.590Z,14548
2017-07-14T07:17:01.486Z,14668
2017-07-14T07:17:42.386Z,14672
2017-07-14T07:18:23.286Z,14844
2017-07-14T07:19:04.189Z,14936
2017-07-14T07:19:45.105Z,15328
2017-07-14T07:20:25.987Z,15680
2017-07-14T07:21:06.903Z,15968
2017-07-14T07:21:47.837Z,16128
2017-07-14T07:22:28.746Z,16864
2017-07-14T07:23:09.681Z,18688
2017-07-14T07:23:50.588Z,24512
2017-07-14T07:24:31.493Z,32480
2017-07-14T07:25:12.386Z,39040
2017-07-14T07:25:53.293Z,43424
2017-07-14T07:26:34.195Z,42528
2017-07-14T07:27:15.101Z,41184
2017-07-14T07:27:56.002Z,44384
2017-07-14T07:28:36.877Z,47104
2017-07-14T07:29:17.783Z,49536
2017-07-14T07:29:58.902Z,53184
2017-07-14T07:31:37.446Z,58080
2017-07-14T07:32:18.368Z,32064
2017-07-14T07:32:59.279Z,33312
2017-07-14T07:33:40.178Z,30304
2017-07-14T07:34:21.097Z,30496
2017-07-14T07:35:02.001Z,39008
2017-07-14T07:35:42.907Z,50336
2017-07-14T07:36:23.837Z,54880
2017-07-14T07:37:04.680Z,58592
2017-07-14T07:37:45.568Z,62144
2017-07-14T07:38:26.475Z,64736
2017-07-14T07:39:07.380Z,67168
2017-07-14T07:39:48.282Z,67552
2017-07-14T07:40:29.180Z,55648
2017-07-14T07:41:10.094Z,57280
2017-07-14T07:41:51.009Z,61376
2017-07-14T07:42:31.924Z,41632
2017-07-14T07:43:12.833Z,25920
2017-07-14T07:43:53.739Z,19680
2017-07-14T07:44:34.648Z,18400
2017-07-14T07:45:15.562Z,30592
2017-07-14T07:45:56.461Z,40000
2017-07-14T07:46:37.409Z,39968
2017-07-14T07:47:18.261Z,42944
2017-07-14T07:47:59.170Z,57056
2017-07-14T07:48:40.071Z,26656
2017-07-14T07:49:20.950Z,24192
2017-07-14T07:50:01.852Z,23584
2017-07-14T07:52:00.842Z,37408
2017-07-14T07:52:41.762Z,68320
2017-07-14T07:53:22.658Z,65600
2017-07-14T07:54:03.573Z,63232
2017-07-14T07:54:44.454Z,60832
2017-07-14T07:55:25.354Z,61824
2017-07-14T07:56:06.267Z,62880
2017-07-14T07:56:47.170Z,66720
2017-07-14T07:57:28.064Z,72064
2017-07-14T07:58:08.971Z,72896
2017-07-14T07:58:49.871Z,60192
2017-07-14T07:59:30.783Z,43168
2017-07-14T08:00:11.683Z,27872
2017-07-14T08:00:52.576Z,20672
2017-07-14T08:01:33.490Z,20160
2017-07-14T08:02:14.389Z,20160
2017-07-14T08:02:55.297Z,20448
2017-07-14T08:03:36.213Z,21152
2017-07-14T08:04:17.116Z,21568
2017-07-14T08:04:58.020Z,21760
2017-07-14T08:05:38.916Z,22016
2017-07-14T08:06:19.822Z,21120
2017-07-14T08:07:00.714Z,20992
2017-07-14T08:07:41.606Z,21120
2017-07-14T08:08:22.518Z,21344
2017-07-14T08:09:03.458Z,20288
2017-07-14T08:09:44.353Z,18432
2017-07-14T08:10:25.256Z,17408
2017-07-14T08:11:06.167Z,18144
2017-07-14T08:11:47.071Z,18752
2017-07-14T08:12:27.981Z,18944
2017-07-14T08:13:08.890Z,19008
2017-07-14T08:13:49.841Z,18976
2017-07-14T08:14:30.742Z,22688
2017-07-14T08:15:11.644Z,24480
2017-07-14T08:15:52.542Z,23072
2017-07-14T08:16:33.436Z,22560
2017-07-14T08:17:14.347Z,22784
2017-07-14T08:17:55.258Z,24672
2017-07-14T08:18:36.142Z,35200
2017-07-14T08:19:17.044Z,32000
2017-07-14T08:19:57.951Z,40800
2017-07-14T08:20:38.856Z,41280
2017-07-14T08:21:19.745Z,48896
2017-07-14T08:22:00.645Z,62720
2017-07-14T08:22:41.554Z,73120
2017-07-14T08:23:22.453Z,80800
2017-07-14T08:24:03.360Z,87776
2017-07-14T08:24:44.271Z,83008
2017-07-14T08:25:25.173Z,16768
2017-07-14T08:26:06.087Z,14480
2017-07-14T08:26:46.985Z,16992
2017-07-14T08:27:27.885Z,14256
2017-07-14T08:28:08.799Z,13168
2017-07-14T08:28:49.704Z,35584
2017-07-14T08:29:30.605Z,13424
2017-07-14T08:30:11.535Z,9488
2017-07-14T08:30:52.435Z,8292
2017-07-14T08:31:33.338Z,7828
2017-07-14T08:32:14.260Z,7700
2017-07-14T08:32:55.170Z,7684
2017-07-14T08:33:36.079Z,7872
2017-07-14T08:34:17.013Z,8268
2017-07-14T08:34:57.923Z,8676
2017-07-14T08:35:38.836Z,8996
2017-07-14T08:36:19.744Z,9256
2017-07-14T08:37:00.656Z,9420
2017-07-14T08:37:41.543Z,9396
2017-07-14T08:38:22.461Z,9400
2017-07-14T08:39:03.352Z,9508
2017-07-14T08:39:44.275Z,9524
2017-07-14T08:40:25.167Z,9460
2017-07-14T08:41:06.077Z,9412
2017-07-14T08:41:46.986Z,9492
2017-07-14T08:42:27.882Z,9540
2017-07-14T08:43:08.782Z,9708
2017-07-14T08:43:49.673Z,10324
2017-07-14T08:44:30.580Z,10724
2017-07-14T08:45:11.457Z,10756
2017-07-14T08:45:52.339Z,10964
2017-07-14T08:46:33.220Z,11672
2017-07-14T08:47:14.122Z,12908
2017-07-14T08:47:55.004Z,14032
2017-07-14T08:48:35.891Z,19520
2017-07-14T08:49:16.810Z,34144
2017-07-14T08:49:57.692Z,20640
2017-07-14T08:50:38.590Z,43552
2017-07-14T08:51:19.500Z,48640
2017-07-14T08:52:00.395Z,62272
2017-07-14T08:52:41.304Z,70752
2017-07-14T08:53:22.226Z,50816
2017-07-14T08:54:03.120Z,73728
2017-07-14T08:54:44.022Z,68032
2017-07-14T08:55:24.931Z,54368
2017-07-14T08:56:05.829Z,28800
2017-07-14T08:56:46.745Z,18592
2017-07-14T08:57:27.638Z,13100
2017-07-14T08:58:08.543Z,9332
2017-07-14T08:58:49.437Z,8036
2017-07-14T08:59:30.344Z,7416
2017-07-14T09:00:11.245Z,7056
2017-07-14T09:00:52.663Z,6740
2017-07-14T09:01:33.577Z,6516
2017-07-14T09:02:14.460Z,6312
2017-07-14T09:02:55.376Z,6088
2017-07-14T09:03:36.266Z,5904
2017-07-14T09:04:17.167Z,5752
2017-07-14T09:04:58.045Z,5584
2017-07-14T09:05:38.945Z,5484
2017-07-14T09:06:19.847Z,5404
2017-07-14T09:07:00.750Z,5368
2017-07-14T09:07:41.645Z,5368
2017-07-14T09:08:22.545Z,5388
2017-07-14T09:09:03.435Z,5428
2017-07-14T09:09:44.337Z,5496
2017-07-14T09:10:25.232Z,5524
2017-07-14T09:11:06.124Z,5476
2017-07-14T09:11:47.029Z,5416
2017-07-14T09:12:27.920Z,5396
2017-07-14T09:13:08.808Z,5456
2017-07-14T09:13:49.706Z,5600
2017-07-14T09:14:30.610Z,5796
2017-07-14T09:15:11.496Z,5988
2017-07-14T09:15:52.412Z,6092
2017-07-14T09:16:33.295Z,6212
2017-07-14T09:17:14.199Z,6488
2017-07-14T09:17:55.107Z,6776
2017-07-14T09:18:35.997Z,7012
2017-07-14T09:19:16.893Z,7240
2017-07-14T09:19:57.802Z,7368
2017-07-14T09:20:38.708Z,7504
2017-07-14T09:21:19.607Z,7700
2017-07-14T09:22:00.506Z,8096
2017-07-14T09:22:41.450Z,8580
2017-07-14T09:23:22.293Z,8980
2017-07-14T09:24:03.189Z,9584
2017-07-14T09:24:44.094Z,10424
2017-07-14T09:25:24.979Z,11176
2017-07-14T09:26:05.875Z,11496
2017-07-14T09:26:46.767Z,11680
2017-07-14T09:27:27.666Z,11980
2017-07-14T09:28:08.563Z,12356
2017-07-14T09:28:49.449Z,12724
2017-07-14T09:29:30.454Z,13240
2017-07-14T09:30:11.300Z,13732
2017-07-14T09:30:52.200Z,14232
2017-07-14T09:31:33.098Z,14704
2017-07-14T09:32:14.042Z,15188
2017-07-14T09:32:54.935Z,15524
2017-07-14T09:33:35.815Z,16224
2017-07-14T09:34:16.710Z,16800
2017-07-14T09:34:57.592Z,17312
2017-07-14T09:35:38.492Z,18496